Time;durP1;ratioP1;P1;durP2;ratioP2;P2;SDS_P1;SDS_P2;PMS_P1;PMS_P2;Temp;Humidity;BMP_temperature;BMP_pressure;BME280_temperature;BME280_humidity;BME280_pressure;Samples;Min_cycle;Max_cycle;Signal;HPM_P1;HPM_P2
2022/04/14 00:00:07;;;;;;;2.50;1.20;;;23.20;37.10;;;;;;5045045;28;20052;-42
2022/04/14 00:02:33;;;;;;;2.92;1.23;;;23.20;37.20;;;;;;5045382;28;20475;-42
2022/04/14 00:04:58;;;;;;;3.60;1.88;;;23.20;37.10;;;;;;5045234;28;20033;-42
2022/04/14 00:07:24;;;;;;;2.40;1.23;;;23.20;37.20;;;;;;5025723;28;20037;-42
2022/04/14 00:09:50;;;;;;;2.83;1.30;;;23.20;37.10;;;;;;5025522;28;20036;-42
2022/04/14 00:12:16;;;;;;;2.60;1.30;;;23.20;37.10;;;;;;5024208;28;20029;-43
2022/04/14 00:14:42;;;;;;;2.10;1.10;;;23.20;37.30;;;;;;5025330;28;20125;-42
2022/04/14 00:17:08;;;;;;;3.15;1.40;;;23.20;37.20;;;;;;5028901;28;20032;-43
2022/04/14 00:19:34;;;;;;;2.42;1.30;;;23.20;37.30;;;;;;5044810;28;20025;-42
2022/04/14 00:22:00;;;;;;;3.10;1.38;;;23.20;37.30;;;;;;5045079;28;20033;-42
2022/04/14 00:24:26;;;;;;;2.92;1.42;;;23.20;37.30;;;;;;5044612;28;20588;-42
2022/04/14 00:26:52;;;;;;;2.30;1.30;;;23.20;37.30;;;;;;5044874;28;20489;-43
2022/04/14 00:29:18;;;;;;;2.75;1.40;;;23.10;37.20;;;;;;5045397;28;20047;-42
2022/04/14 00:31:43;;;;;;;2.83;1.25;;;23.20;37.30;;;;;;5045269;28;20104;-42
2022/04/14 00:34:09;;;;;;;2.50;1.38;;;23.10;37.30;;;;;;5025081;28;20079;-42
2022/04/14 00:36:35;;;;;;;3.00;1.35;;;23.10;37.30;;;;;;5025174;28;20026;-42
2022/04/14 00:39:01;;;;;;;2.05;1.10;;;23.10;37.30;;;;;;5025513;28;20021;-42
2022/04/14 00:41:29;;;;;;;3.53;1.33;;;23.10;37.20;;;;;;5024877;28;20025;-43
2022/04/14 00:43:55;;;;;;;2.55;1.10;;;23.10;37.30;;;;;;5024214;28;20424;-43
2022/04/14 00:46:22;;;;;;;2.63;1.27;;;23.10;37.30;;;;;;5024523;28;20108;-43
2022/04/14 00:48:52;;;;;;;2.45;1.13;;;23.10;37.30;;;;;;5028612;28;20045;-42
2022/04/14 00:51:18;;;;;;;2.25;1.38;;;23.10;37.30;;;;;;5024769;28;20108;-42
2022/04/14 00:53:44;;;;;;;2.65;1.30;;;23.10;37.40;;;;;;5024416;28;20033;-43
2022/04/14 00:56:10;;;;;;;1.92;1.17;;;23.10;37.30;;;;;;5024389;28;20033;-42
2022/04/14 00:58:36;;;;;;;3.40;1.40;;;23.10;37.30;;;;;;5024493;28;20032;-42
2022/04/14 01:01:05;;;;;;;2.47;1.20;;;23.10;37.40;;;;;;5024948;28;20033;-42
2022/04/14 01:03:32;;;;;;;2.42;1.25;;;23.10;37.40;;;;;;5038149;28;20723;-42
2022/04/14 01:05:59;;;;;;;4.53;1.75;;;23.10;37.40;;;;;;5036353;28;20131;-42
2022/04/14 01:08:27;;;;;;;2.47;1.20;;;23.10;37.40;;;;;;5023801;28;20129;-42
2022/04/14 01:10:54;;;;;;;2.40;1.17;;;23.00;37.40;;;;;;5024612;28;20029;-43
2022/04/14 01:13:21;;;;;;;2.08;1.15;;;23.00;37.50;;;;;;5023569;28;20025;-42
2022/04/14 01:15:48;;;;;;;2.45;1.15;;;23.00;37.30;;;;;;5023930;28;20030;-42
2022/04/14 01:18:15;;;;;;;2.42;1.15;;;23.00;37.20;;;;;;5034998;28;20033;-42
2022/04/14 01:20:42;;;;;;;2.28;1.13;;;23.00;37.30;;;;;;5043964;28;20036;-42
2022/04/14 01:23:10;;;;;;;2.95;1.70;;;23.00;37.30;;;;;;5043349;28;20111;-42
2022/04/14 01:25:37;;;;;;;2.38;1.10;;;23.00;37.30;;;;;;5044078;28;20043;-42
2022/04/14 01:28:04;;;;;;;2.47;1.10;;;23.00;37.30;;;;;;5044020;28;20032;-43
2022/04/14 01:30:30;;;;;;;2.08;1.23;;;23.00;37.40;;;;;;5044417;28;20036;-42
2022/04/14 01:32:56;;;;;;;2.05;1.00;;;23.00;37.30;;;;;;5034787;28;20034;-42
2022/04/14 01:35:23;;;;;;;2.83;1.33;;;23.00;37.30;;;;;;5024156;28;20211;-42
2022/04/14 01:37:49;;;;;;;2.42;1.15;;;23.00;37.30;;;;;;5023884;28;20026;-42
2022/04/14 01:40:14;;;;;;;2.70;1.20;;;23.00;37.30;;;;;;5024686;28;20041;-42
2022/04/14 01:42:40;;;;;;;2.70;1.27;;;23.00;37.30;;;;;;5024199;28;20029;-43
2022/04/14 01:45:10;;;;;;;3.80;1.40;;;23.00;37.30;;;;;;5023711;28;20482;-43
2022/04/14 01:47:44;;;;;;;3.03;1.45;;;23.00;37.40;;;;;;5029504;28;20447;-41
2022/04/14 01:50:14;;;;;;;3.05;1.20;;;23.00;37.40;;;;;;5026582;28;20037;-41
2022/04/14 01:52:42;;;;;;;2.85;1.40;;;23.00;37.40;;;;;;5024095;28;20029;-41
2022/04/14 01:55:08;;;;;;;2.72;1.20;;;23.00;37.50;;;;;;5023849;28;20026;-41
2022/04/14 01:57:34;;;;;;;2.13;1.15;;;23.00;37.50;;;;;;5023875;28;20025;-41
2022/04/14 02:00:01;;;;;;;2.63;1.35;;;23.00;37.50;;;;;;5024363;28;20481;-41
2022/04/14 02:02:27;;;;;;;3.17;1.40;;;22.90;37.30;;;;;;5023608;28;20042;-41
2022/04/14 02:04:53;;;;;;;2.60;1.30;;;22.90;37.30;;;;;;5023606;28;20154;-41
2022/04/14 02:07:19;;;;;;;2.10;1.15;;;22.90;37.40;;;;;;5024143;28;20410;-41
2022/04/14 02:09:45;;;;;;;2.53;1.25;;;22.90;37.40;;;;;;5024079;28;20049;-41
2022/04/14 02:12:12;;;;;;;2.35;1.15;;;22.90;37.40;;;;;;5024129;28;20080;-41
2022/04/14 02:14:39;;;;;;;2.22;1.15;;;22.90;37.40;;;;;;5023115;28;20109;-41
2022/04/14 02:17:05;;;;;;;1.85;0.90;;;22.90;37.40;;;;;;5023888;28;20021;-41
2022/04/14 02:19:31;;;;;;;2.80;1.08;;;22.90;37.50;;;;;;5024052;28;20532;-41
2022/04/14 02:22:00;;;;;;;2.72;1.15;;;22.90;37.40;;;;;;5023659;28;20061;-41
2022/04/14 02:24:26;;;;;;;2.35;1.10;;;22.90;37.40;;;;;;5026385;28;20028;-41
2022/04/14 02:26:53;;;;;;;2.13;1.15;;;22.90;37.40;;;;;;5027063;28;20572;-41
2022/04/14 02:29:19;;;;;;;2.45;1.25;;;22.90;37.40;;;;;;5027574;28;20660;-41
2022/04/14 02:31:45;;;;;;;2.90;1.35;;;22.90;37.40;;;;;;5027325;28;20104;-41
2022/04/14 02:34:11;;;;;;;2.15;1.00;;;22.90;37.40;;;;;;5044106;28;20120;-41
2022/04/14 02:36:37;;;;;;;1.85;1.00;;;22.90;37.50;;;;;;5033382;28;20064;-41
2022/04/14 02:39:02;;;;;;;2.55;1.40;;;22.90;37.50;;;;;;5027233;28;20021;-41
2022/04/14 02:41:28;;;;;;;2.20;1.25;;;22.90;37.50;;;;;;5027392;28;20488;-41
2022/04/14 02:43:54;;;;;;;2.35;1.02;;;22.90;37.50;;;;;;5026584;28;20038;-42
2022/04/14 02:46:20;;;;;;;2.42;1.30;;;22.90;37.30;;;;;;5027110;28;20035;-41
2022/04/14 02:48:45;;;;;;;2.33;1.20;;;22.80;37.30;;;;;;5038382;28;20040;-41
2022/04/14 02:51:11;;;;;;;2.15;1.10;;;22.90;37.50;;;;;;5029110;28;20117;-41
2022/04/14 02:53:37;;;;;;;2.78;1.20;;;22.90;37.40;;;;;;5026810;28;20424;-41
2022/04/14 02:56:05;;;;;;;2.08;1.20;;;22.90;37.40;;;;;;5026744;28;20030;-41
2022/04/14 02:58:31;;;;;;;2.22;0.90;;;22.80;37.40;;;;;;5025733;28;20474;-41
2022/04/14 03:00:57;;;;;;;2.60;1.17;;;22.80;37.40;;;;;;5026411;28;20572;-41
2022/04/14 03:03:28;;;;;;;2.17;1.20;;;22.80;37.40;;;;;;5036804;28;20079;-42
2022/04/14 03:05:53;;;;;;;2.20;1.17;;;22.80;37.40;;;;;;5046605;28;20032;-42
2022/04/14 03:08:19;;;;;;;3.25;1.45;;;22.80;37.30;;;;;;5046393;28;20033;-42
2022/04/14 03:10:45;;;;;;;2.25;1.30;;;22.80;37.40;;;;;;5036642;28;20025;-41
2022/04/14 03:13:11;;;;;;;3.10;1.30;;;22.80;37.30;;;;;;5036933;28;20226;-42
2022/04/14 03:15:37;;;;;;;2.15;1.17;;;22.80;37.30;;;;;;5036855;28;20021;-42
2022/04/14 03:18:03;;;;;;;2.67;1.27;;;22.80;37.30;;;;;;5040684;28;20078;-42
2022/04/14 03:20:29;;;;;;;3.47;1.40;;;22.70;37.30;;;;;;5045685;28;20028;-42
2022/04/14 03:22:58;;;;;;;2.47;1.08;;;22.80;37.40;;;;;;5045844;28;20025;-42
2022/04/14 03:25:24;;;;;;;2.70;1.00;;;22.80;37.40;;;;;;5046386;28;20598;-42
2022/04/14 03:27:50;;;;;;;2.28;1.10;;;22.80;37.40;;;;;;5033896;28;20104;-41
2022/04/14 03:30:15;;;;;;;2.15;1.10;;;22.80;37.40;;;;;;5024650;28;20697;-42
2022/04/14 03:32:45;;;;;;;2.72;1.27;;;22.80;37.30;;;;;;5029904;28;20173;-42
2022/04/14 03:35:12;;;;;;;2.47;1.10;;;22.70;37.40;;;;;;5044820;28;20043;-42
2022/04/14 03:37:38;;;;;;;2.35;1.17;;;22.70;37.40;;;;;;5044589;28;20040;-42
2022/04/14 03:40:05;;;;;;;2.78;1.30;;;22.80;37.40;;;;;;5045996;28;20086;-42
2022/04/14 03:42:30;;;;;;;2.47;1.15;;;22.70;37.40;;;;;;5046210;28;20065;-42
2022/04/14 03:44:58;;;;;;;2.55;1.27;;;22.70;37.40;;;;;;5045948;28;21016;-42
2022/04/14 03:47:24;;;;;;;2.08;1.02;;;22.70;37.40;;;;;;5045964;28;20599;-42
2022/04/14 03:49:50;;;;;;;2.80;1.30;;;22.70;37.40;;;;;;5042519;28;20037;-43
2022/04/14 03:52:16;;;;;;;2.72;1.17;;;22.70;37.40;;;;;;5043208;28;20028;-42
2022/04/14 03:54:41;;;;;;;3.03;1.20;;;22.70;37.40;;;;;;5045557;28;20028;-42
2022/04/14 03:57:07;;;;;;;1.98;0.90;;;22.70;37.40;;;;;;5039567;28;20032;-42
2022/04/14 03:59:33;;;;;;;2.33;1.02;;;22.70;37.40;;;;;;5025823;28;20589;-42
2022/04/14 04:01:59;;;;;;;2.20;1.00;;;22.80;37.40;;;;;;5025385;28;20041;-42
2022/04/14 04:04:24;;;;;;;2.38;1.33;;;22.70;37.50;;;;;;5042560;28;20203;-42
2022/04/14 04:06:50;;;;;;;1.70;0.98;;;22.70;37.50;;;;;;5044334;28;20067;-42
2022/04/14 04:09:16;;;;;;;2.95;1.58;;;22.70;37.50;;;;;;5045087;28;20029;-42
2022/04/14 04:11:42;;;;;;;3.60;1.30;;;22.70;37.50;;;;;;5044837;28;20036;-42
2022/04/14 04:14:07;;;;;;;2.38;1.05;;;22.70;37.50;;;;;;5044530;28;20366;-42
2022/04/14 04:16:33;;;;;;;1.65;0.80;;;22.70;37.70;;;;;;5045111;28;20021;-42
2022/04/14 04:18:59;;;;;;;2.65;1.27;;;22.70;37.70;;;;;;5045335;28;20029;-42
2022/04/14 04:21:29;;;;;;;2.35;1.20;;;22.70;37.70;;;;;;5045460;28;20123;-42
2022/04/14 04:23:55;;;;;;;3.00;1.40;;;22.80;37.90;;;;;;5044082;28;20060;-43
2022/04/14 04:26:21;;;;;;;2.05;1.10;;;22.70;37.90;;;;;;5044285;28;20138;-42
2022/04/14 04:28:46;;;;;;;3.25;1.58;;;22.80;37.90;;;;;;5025010;28;20036;-42
2022/04/14 04:31:12;;;;;;;2.28;1.10;;;22.80;37.90;;;;;;5025133;28;20061;-42
2022/04/14 04:33:38;;;;;;;2.28;1.20;;;22.80;37.90;;;;;;5024740;28;20596;-42
2022/04/14 04:36:04;;;;;;;2.33;1.20;;;22.80;37.90;;;;;;5024895;28;20033;-42
2022/04/14 04:38:30;;;;;;;2.35;1.08;;;22.90;37.90;;;;;;5024958;28;20037;-42
2022/04/14 04:40:58;;;;;;;2.22;1.00;;;22.90;37.90;;;;;;5024803;28;20025;-42
2022/04/14 04:43:25;;;;;;;2.22;1.08;;;23.00;37.80;;;;;;5024399;28;20159;-42
2022/04/14 04:45:50;;;;;;;2.38;1.20;;;23.00;37.80;;;;;;5023797;28;20033;-42
2022/04/14 04:48:16;;;;;;;2.17;1.05;;;23.00;37.70;;;;;;5023452;28;20045;-43
2022/04/14 04:50:42;;;;;;;2.33;1.10;;;23.10;37.80;;;;;;5026042;28;20569;-42
2022/04/14 04:53:08;;;;;;;2.45;1.30;;;23.10;37.70;;;;;;5025586;28;20040;-42
2022/04/14 04:55:34;;;;;;;2.17;1.25;;;23.10;37.70;;;;;;5023116;28;20096;-42
2022/04/14 04:58:00;;;;;;;2.28;0.90;;;23.20;37.60;;;;;;5023608;28;20040;-42
2022/04/14 05:00:26;;;;;;;2.25;1.17;;;23.20;37.50;;;;;;5024184;28;20576;-42
2022/04/14 05:02:52;;;;;;;2.38;1.15;;;23.30;37.50;;;;;;5024051;28;20887;-42
2022/04/14 05:05:21;;;;;;;2.13;1.17;;;23.30;37.50;;;;;;5042602;28;20033;-43
2022/04/14 05:07:46;;;;;;;2.10;1.05;;;23.30;37.50;;;;;;5040613;28;20025;-42
2022/04/14 05:10:12;;;;;;;2.55;1.45;;;23.30;37.80;;;;;;5043293;28;20074;-42
2022/04/14 05:12:37;;;;;;;2.22;1.08;;;23.30;38.40;;;;;;5042825;28;20632;-42
2022/04/14 05:15:04;;;;;;;2.90;1.52;;;23.30;38.30;;;;;;5042283;28;20040;-42
2022/04/14 05:17:30;;;;;;;1.80;1.00;;;23.30;38.10;;;;;;5043133;28;20029;-42
2022/04/14 05:19:55;;;;;;;2.25;1.17;;;23.40;38.20;;;;;;5043076;28;20678;-42
2022/04/14 05:22:21;;;;;;;2.55;1.20;;;23.40;38.20;;;;;;5043734;28;20421;-42
2022/04/14 05:24:47;;;;;;;2.70;1.55;;;23.40;38.20;;;;;;5042770;28;20040;-42
2022/04/14 05:27:12;;;;;;;9.45;3.55;;;23.40;37.90;;;;;;5042587;28;20025;-42
2022/04/14 05:29:38;;;;;;;11.10;4.95;;;23.50;37.90;;;;;;5018746;28;20104;-42
2022/04/14 05:32:04;;;;;;;19.45;6.78;;;23.50;38.20;;;;;;5013658;28;20104;-42
2022/04/14 05:34:30;;;;;;;13.27;5.45;;;23.50;38.20;;;;;;5031714;28;20401;-42
2022/04/14 05:36:56;;;;;;;17.15;5.68;;;23.50;38.20;;;;;;5039652;28;20020;-41
2022/04/14 05:39:22;;;;;;;17.38;6.57;;;23.60;38.10;;;;;;5038993;28;20541;-42
2022/04/14 05:41:47;;;;;;;14.82;5.97;;;23.50;37.90;;;;;;5040769;28;20513;-42
2022/04/14 05:44:13;;;;;;;16.35;6.78;;;23.50;37.90;;;;;;5039808;28;20700;-42
2022/04/14 05:46:39;;;;;;;16.45;6.45;;;23.60;37.90;;;;;;5038220;28;20025;-42
2022/04/14 05:49:04;;;;;;;14.52;5.88;;;23.60;37.80;;;;;;5040566;28;20017;-42
2022/04/14 05:51:30;;;;;;;16.33;6.35;;;23.60;37.80;;;;;;5042350;28;20036;-42
2022/04/14 05:53:56;;;;;;;11.23;4.90;;;23.50;37.70;;;;;;5041066;28;20776;-42
2022/04/14 05:56:21;;;;;;;13.55;5.55;;;23.50;37.70;;;;;;5039311;28;20036;-42
2022/04/14 05:58:47;;;;;;;9.90;4.60;;;23.50;37.70;;;;;;5040239;28;20037;-42
2022/04/14 06:01:13;;;;;;;10.27;4.22;;;23.50;38.20;;;;;;5045677;28;20504;-42
2022/04/14 06:03:40;;;;;;;11.57;4.22;;;23.60;38.40;;;;;;5046743;28;20110;-42
2022/04/14 06:06:07;;;;;;;11.30;3.80;;;23.60;38.40;;;;;;5047164;28;20021;-43
2022/04/14 06:08:32;;;;;;;10.57;4.28;;;23.50;38.50;;;;;;5047659;28;20044;-42
2022/04/14 06:10:58;;;;;;;9.18;3.97;;;23.60;38.50;;;;;;5047324;28;20041;-43
2022/04/14 06:13:24;;;;;;;8.88;3.47;;;23.60;38.60;;;;;;5047024;28;20197;-43
2022/04/14 06:15:50;;;;;;;7.80;3.90;;;23.60;38.50;;;;;;5032744;28;20679;-43
2022/04/14 06:18:15;;;;;;;8.85;3.63;;;23.60;38.50;;;;;;5041451;28;20126;-42
2022/04/14 06:20:41;;;;;;;7.57;3.20;;;23.60;38.50;;;;;;5046562;28;20363;-42
2022/04/14 06:23:08;;;;;;;9.32;3.42;;;23.60;38.10;;;;;;5046532;28;20029;-42
2022/04/14 06:25:34;;;;;;;8.30;3.65;;;23.60;37.90;;;;;;5046039;28;20575;-42
2022/04/14 06:28:00;;;;;;;7.10;3.10;;;23.60;37.80;;;;;;5045147;28;20132;-42
2022/04/14 06:30:26;;;;;;;6.55;3.05;;;23.60;37.80;;;;;;5046754;28;20060;-42
2022/04/14 06:33:00;;;;;;;6.85;2.88;;;23.70;37.70;;;;;;5045748;28;20141;-42
2022/04/14 06:35:26;;;;;;;7.10;2.85;;;23.60;37.60;;;;;;5043717;28;20021;-42
2022/04/14 06:37:53;;;;;;;7.05;3.30;;;23.60;37.60;;;;;;5046071;28;20044;-42
2022/04/14 06:40:20;;;;;;;6.80;3.30;;;23.60;37.50;;;;;;5046713;28;20542;-42
2022/04/14 06:42:46;;;;;;;6.97;2.40;;;23.60;37.50;;;;;;5045389;28;20126;-42
2022/04/14 06:45:11;;;;;;;7.13;3.20;;;23.60;37.50;;;;;;5046156;28;20029;-42
2022/04/14 06:47:37;;;;;;;5.28;2.58;;;23.60;37.40;;;;;;5044679;28;20028;-42
2022/04/14 06:50:03;;;;;;;5.82;2.65;;;23.60;37.40;;;;;;5045556;28;20570;-42
2022/04/14 06:52:29;;;;;;;6.40;2.33;;;23.60;37.40;;;;;;5045991;28;20024;-42
2022/04/14 06:54:54;;;;;;;6.32;2.95;;;23.60;37.40;;;;;;5046162;28;20021;-42
2022/04/14 06:57:20;;;;;;;5.40;2.40;;;23.60;37.20;;;;;;5036873;28;20061;-42
2022/04/14 06:59:46;;;;;;;4.60;2.47;;;23.60;37.20;;;;;;5026553;28;20033;-42
2022/04/14 07:02:12;;;;;;;5.65;2.13;;;23.60;37.10;;;;;;5026893;28;20037;-42
2022/04/14 07:04:38;;;;;;;6.38;2.60;;;23.50;37.00;;;;;;5042214;28;20036;-42
2022/04/14 07:07:04;;;;;;;5.95;2.40;;;23.60;37.00;;;;;;5046797;28;20029;-42
2022/04/14 07:09:32;;;;;;;4.25;2.05;;;23.50;37.00;;;;;;5046664;28;20158;-42
2022/04/14 07:12:01;;;;;;;5.40;2.30;;;23.50;36.90;;;;;;5046545;28;20030;-43
2022/04/14 07:14:28;;;;;;;5.85;2.50;;;23.60;36.90;;;;;;5046095;28;20025;-42
2022/04/14 07:16:55;;;;;;;5.57;2.60;;;23.60;36.90;;;;;;5046526;28;20566;-42
2022/04/14 07:19:21;;;;;;;3.78;1.98;;;23.50;36.90;;;;;;5039272;28;20057;-42
2022/04/14 07:21:46;;;;;;;5.55;2.50;;;23.50;36.90;;;;;;5026305;28;20073;-42
2022/04/14 07:24:13;;;;;;;5.35;2.17;;;23.50;36.90;;;;;;5026222;28;20485;-42
2022/04/14 07:26:38;;;;;;;5.47;1.90;;;23.50;36.90;;;;;;5026824;28;20060;-42
2022/04/14 07:29:05;;;;;;;4.15;1.92;;;23.50;36.90;;;;;;5026387;28;20092;-42
2022/04/14 07:31:35;;;;;;;4.50;2.60;;;23.50;36.90;;;;;;5026218;28;20109;-42
2022/04/14 07:34:02;;;;;;;3.88;1.98;;;23.50;36.90;;;;;;5025674;28;20057;-42
2022/04/14 07:36:28;;;;;;;3.97;1.73;;;23.50;36.90;;;;;;5026482;28;20032;-42
2022/04/14 07:38:54;;;;;;;3.55;2.00;;;23.50;36.80;;;;;;5026064;28;20059;-42
2022/04/14 07:41:20;;;;;;;4.78;2.03;;;23.50;36.80;;;;;;5026133;28;20525;-42
2022/04/14 07:43:45;;;;;;;4.15;1.75;;;23.50;36.80;;;;;;5026146;28;20025;-42
2022/04/14 07:46:11;;;;;;;3.83;2.15;;;23.50;36.80;;;;;;5025720;28;20076;-42
2022/04/14 07:48:37;;;;;;;4.40;2.20;;;23.50;36.80;;;;;;5031667;28;20041;-42
2022/04/14 07:51:03;;;;;;;4.13;1.70;;;23.50;36.80;;;;;;5028391;28;20108;-42
2022/04/14 07:53:30;;;;;;;5.32;1.70;;;23.50;36.80;;;;;;5023318;28;20037;-42
2022/04/14 07:55:56;;;;;;;4.43;1.80;;;23.40;36.70;;;;;;5024973;28;20026;-42
2022/04/14 07:58:22;;;;;;;4.80;1.95;;;23.40;36.70;;;;;;5024204;28;20028;-42
2022/04/14 08:00:50;;;;;;;3.88;1.90;;;23.50;36.80;;;;;;5024429;28;20522;-42
2022/04/14 08:03:16;;;;;;;4.47;1.50;;;23.40;36.70;;;;;;5027107;28;20313;-42
2022/04/14 08:05:44;;;;;;;3.35;1.60;;;23.40;36.70;;;;;;5044688;28;20063;-42
2022/04/14 08:08:11;;;;;;;3.70;1.77;;;23.40;36.70;;;;;;5045210;28;20587;-42
2022/04/14 08:10:38;;;;;;;3.55;1.67;;;23.40;36.70;;;;;;5045617;28;20033;-42
2022/04/14 08:13:04;;;;;;;4.82;1.67;;;23.40;36.70;;;;;;5044132;28;20036;-42
2022/04/14 08:15:31;;;;;;;4.38;1.88;;;23.40;36.70;;;;;;5045358;28;20029;-42
2022/04/14 08:17:57;;;;;;;4.40;2.17;;;23.40;36.80;;;;;;5045204;28;20158;-42
2022/04/14 08:20:23;;;;;;;5.78;1.83;;;23.40;36.70;;;;;;5045314;28;20033;-42
2022/04/14 08:22:57;;;;;;;4.07;1.98;;;23.40;36.70;;;;;;5044772;28;20069;-42
2022/04/14 08:25:34;;;;;;;3.88;1.88;;;23.40;36.70;;;;;;5045674;28;20369;-42
2022/04/14 08:28:04;;;;;;;3.28;1.45;;;23.40;36.70;;;;;;5032259;28;20052;-42
2022/04/14 08:30:32;;;;;;;4.22;1.80;;;23.40;36.70;;;;;;5024944;28;20030;-42
2022/04/14 08:33:05;;;;;;;4.20;1.80;;;23.40;36.70;;;;;;5025200;28;20040;-42
2022/04/14 08:35:31;;;;;;;;;;;23.40;36.70;;;;;;5045209;28;20068;-42
2022/04/14 08:37:56;;;;;;;3.20;1.25;;;23.40;36.70;;;;;;5043674;28;19940;-42
2022/04/14 08:40:22;;;;;;;4.05;1.85;;;23.30;36.70;;;;;;5044851;28;20309;-42
2022/04/14 08:43:07;;;;;;;3.50;1.50;;;23.30;36.70;;;;;;5045520;28;20052;-42
2022/04/14 08:45:35;;;;;;;3.17;1.42;;;23.30;36.70;;;;;;5044854;28;20674;-42
2022/04/14 08:48:03;;;;;;;3.00;1.40;;;23.30;36.70;;;;;;5044582;28;20035;-42
2022/04/14 08:50:29;;;;;;;3.50;1.65;;;23.30;36.80;;;;;;5038294;28;20612;-42
2022/04/14 08:52:56;;;;;;;3.75;1.80;;;23.30;36.80;;;;;;5024558;28;20553;-42
2022/04/14 08:55:22;;;;;;;2.65;1.42;;;23.30;36.80;;;;;;5025002;28;20064;-42
2022/04/14 08:57:48;;;;;;;2.92;1.38;;;23.30;36.80;;;;;;5025521;28;20061;-42
2022/04/14 09:00:16;;;;;;;3.10;1.52;;;23.30;36.80;;;;;;5023862;28;20037;-42
2022/04/14 09:02:46;;;;;;;3.47;1.50;;;23.30;36.80;;;;;;5024145;28;20474;-42
2022/04/14 09:05:13;;;;;;;3.92;1.80;;;23.30;36.80;;;;;;5042358;28;20120;-42
2022/04/14 09:07:39;;;;;;;3.40;1.80;;;23.30;36.70;;;;;;5044093;28;20653;-42
2022/04/14 09:10:06;;;;;;;4.03;1.77;;;23.30;36.70;;;;;;5044291;28;20061;-42
2022/04/14 09:12:35;;;;;;;3.33;1.75;;;23.30;36.80;;;;;;5044663;28;20021;-42
2022/04/14 09:15:00;;;;;;;3.42;1.52;;;23.30;36.80;;;;;;5043149;28;20032;-42
2022/04/14 09:17:27;;;;;;;4.53;1.85;;;23.30;36.80;;;;;;5044168;28;20028;-42
2022/04/14 09:19:53;;;;;;;3.05;1.52;;;23.30;36.90;;;;;;5044011;28;20052;-42
2022/04/14 09:22:20;;;;;;;2.88;1.33;;;23.30;36.80;;;;;;5044275;28;20918;-42
2022/04/14 09:24:51;;;;;;;4.30;1.40;;;23.30;36.80;;;;;;5043881;28;20029;-42
2022/04/14 09:27:37;;;;;;;4.28;1.75;;;23.30;36.80;;;;;;5036299;28;20029;-42
2022/04/14 09:30:08;;;;;;;3.72;1.50;;;23.30;36.80;;;;;;5024725;28;20056;-42
2022/04/14 09:32:44;;;;;;;4.28;1.90;;;23.40;36.80;;;;;;5023674;28;20032;-42
2022/04/14 09:35:18;;;;;;;4.13;1.40;;;23.30;36.80;;;;;;5041556;28;20133;-43
2022/04/14 09:37:43;;;;;;;2.28;1.10;;;23.40;36.80;;;;;;5043871;28;20025;-42
2022/04/14 09:40:11;;;;;;;3.67;1.50;;;23.40;36.80;;;;;;5044196;28;20039;-42
2022/04/14 09:42:41;;;;;;;4.07;1.45;;;23.40;36.80;;;;;;5042976;28;20079;-42
2022/04/14 09:45:20;;;;;;;3.13;1.30;;;23.40;36.80;;;;;;5044786;28;20035;-42
2022/04/14 09:47:48;;;;;;;3.40;1.70;;;23.40;36.80;;;;;;5044186;28;20162;-42
2022/04/14 09:50:26;;;;;;;3.10;1.58;;;23.40;36.80;;;;;;5043392;28;20044;-42
2022/04/14 09:53:08;;;;;;;3.70;1.58;;;23.40;36.80;;;;;;5039436;28;20181;-42
2022/04/14 09:55:36;;;;;;;3.70;1.33;;;23.50;36.90;;;;;;5042372;28;20048;-42
2022/04/14 09:58:19;;;;;;;3.30;1.42;;;23.40;36.70;;;;;;5030243;28;20030;-42
2022/04/14 10:00:55;;;;;;;2.47;1.20;;;23.40;36.70;;;;;;5024380;28;20163;-42
2022/04/14 10:03:26;;;;;;;3.20;1.30;;;23.50;36.80;;;;;;5023884;28;20124;-42
2022/04/14 10:05:54;;;;;;;2.95;1.48;;;23.50;36.80;;;;;;5023722;28;20460;-42
2022/04/14 10:08:22;;;;;;;3.42;1.65;;;23.50;36.70;;;;;;5023881;28;20037;-42
2022/04/14 10:10:50;;;;;;;2.80;1.30;;;23.50;36.70;;;;;;5023724;28;20052;-42
2022/04/14 10:13:17;;;;;;;2.53;1.38;;;23.50;36.70;;;;;;5023444;28;20072;-42
2022/04/14 10:15:46;;;;;;;2.78;1.40;;;23.50;36.70;;;;;;5023470;28;20025;-42
2022/04/14 10:18:14;;;;;;;3.80;1.55;;;23.50;36.70;;;;;;5024086;28;20026;-42
2022/04/14 10:20:45;;;;;;;2.92;1.50;;;23.50;36.70;;;;;;5044337;28;20028;-42
2022/04/14 10:23:13;;;;;;;2.90;1.50;;;23.50;36.70;;;;;;5043617;28;20241;-42
2022/04/14 10:25:39;;;;;;;3.10;1.23;;;23.50;36.60;;;;;;5043612;28;20154;-42
2022/04/14 10:28:07;;;;;;;3.30;1.63;;;23.50;36.70;;;;;;5029275;28;20497;-42
2022/04/14 10:30:33;;;;;;;3.25;1.40;;;23.50;36.70;;;;;;5025160;28;20234;-42
2022/04/14 10:32:59;;;;;;;3.35;1.30;;;23.50;36.70;;;;;;5024044;28;20496;-42
2022/04/14 10:35:27;;;;;;;3.58;1.48;;;23.50;36.60;;;;;;5041366;28;20029;-42
2022/04/14 10:38:17;;;;;;;2.75;1.33;;;23.50;36.70;;;;;;5043980;28;20033;-42
2022/04/14 10:40:53;;;;;;;2.90;1.23;;;23.50;36.70;;;;;;5044090;28;20036;-42
2022/04/14 10:43:23;;;;;;;2.97;1.63;;;23.50;36.60;;;;;;5043691;28;20313;-41
2022/04/14 10:45:54;;;;;;;3.78;1.75;;;23.50;36.60;;;;;;5044380;28;20052;-42
2022/04/14 10:48:30;;;;;;;3.60;1.50;;;23.50;36.70;;;;;;5046896;28;20035;-42
2022/04/14 10:51:16;;;;;;;2.55;1.20;;;23.50;37.30;;;;;;5046956;28;20021;-42
2022/04/14 10:53:59;;;;;;;1.95;1.20;;;23.50;36.70;;;;;;5030340;28;20033;-42
2022/04/14 10:56:33;;;;;;;2.60;1.33;;;23.50;36.70;;;;;;5027089;28;20100;-42
2022/04/14 10:59:00;;;;;;;2.70;1.35;;;23.50;36.70;;;;;;5027282;28;20017;-42
2022/04/14 11:01:45;;;;;;;2.88;1.38;;;23.50;36.70;;;;;;5027457;28;20038;-42
2022/04/14 11:04:30;;;;;;;2.97;1.40;;;23.50;36.70;;;;;;5033591;28;20568;-42
2022/04/14 11:07:15;;;;;;;3.65;1.38;;;23.50;36.70;;;;;;5046870;28;20036;-42
2022/04/14 11:09:48;;;;;;;2.75;1.20;;;23.50;36.70;;;;;;5046252;28;20083;-42
2022/04/14 11:12:20;;;;;;;2.50;1.10;;;23.50;36.70;;;;;;5046851;28;20087;-43
2022/04/14 11:14:55;;;;;;;2.38;1.10;;;23.50;36.90;;;;;;5046790;28;20051;-42
2022/04/14 11:17:40;;;;;;;2.08;1.05;;;23.50;36.80;;;;;;5046904;28;20337;-42
2022/04/14 11:20:19;;;;;;;2.75;1.17;;;23.50;36.80;;;;;;5030381;28;20025;-42
2022/04/14 11:23:12;;;;;;;3.63;1.35;;;23.50;36.80;;;;;;5026676;28;20033;-42
2022/04/14 11:25:41;;;;;;;3.28;1.30;;;23.50;36.90;;;;;;5026622;28;20041;-42
2022/04/14 11:28:19;;;;;;;2.92;1.48;;;23.50;36.80;;;;;;5026524;28;20034;-42
2022/04/14 11:30:45;;;;;;;2.67;1.25;;;23.50;36.80;;;;;;5026858;28;20033;-42
2022/04/14 11:33:13;;;;;;;2.53;1.17;;;23.50;36.70;;;;;;5026408;28;20037;-42
2022/04/14 11:35:45;;;;;;;2.53;1.23;;;23.50;36.80;;;;;;5044825;28;20029;-42
2022/04/14 11:38:52;;;;;;;2.75;1.52;;;23.50;36.80;;;;;;5046161;28;20060;-42
2022/04/14 11:41:41;;;;;;;2.38;1.10;;;23.50;36.80;;;;;;5044791;28;20037;-42
2022/04/14 11:44:22;;;;;;;2.72;1.20;;;23.50;36.80;;;;;;5045886;28;20104;-42
2022/04/14 11:46:50;;;;;;;3.47;1.63;;;23.50;36.80;;;;;;5045521;28;20021;-42
2022/04/14 11:49:21;;;;;;;2.45;1.15;;;23.50;36.80;;;;;;5045332;28;20033;-42
2022/04/14 11:51:52;;;;;;;2.17;1.00;;;23.50;36.90;;;;;;5046002;28;20035;-42
2022/04/14 11:54:26;;;;;;;2.83;1.02;;;23.60;37.00;;;;;;5038924;28;20532;-42
2022/04/14 11:56:54;;;;;;;3.33;1.00;;;23.60;37.00;;;;;;5038226;28;20250;-42
2022/04/14 11:59:34;;;;;;;2.72;1.30;;;23.60;37.00;;;;;;5024264;28;20056;-42
2022/04/14 12:02:12;;;;;;;1.55;0.88;;;23.60;37.00;;;;;;5024546;28;20021;-42
2022/04/14 12:04:43;;;;;;;2.60;1.23;;;23.60;37.00;;;;;;5024210;28;20033;-42
2022/04/14 12:07:09;;;;;;;2.58;1.23;;;23.60;37.00;;;;;;5024704;28;20030;-42
2022/04/14 12:09:34;;;;;;;2.60;1.00;;;23.70;37.00;;;;;;5024337;28;20045;-42
2022/04/14 12:12:17;;;;;;;2.70;1.20;;;23.70;37.10;;;;;;5025493;28;20119;-42
2022/04/14 12:14:46;;;;;;;2.33;1.10;;;23.70;36.90;;;;;;5025168;28;20508;-42
2022/04/14 12:17:13;;;;;;;2.97;1.27;;;23.70;36.90;;;;;;5025889;28;20128;-42
2022/04/14 12:20:01;;;;;;;2.08;1.02;;;23.70;36.80;;;;;;5034339;28;20021;-42
2022/04/14 12:22:31;;;;;;;2.33;1.10;;;23.70;36.80;;;;;;5044996;28;20029;-43
2022/04/14 12:25:02;;;;;;;2.35;1.10;;;23.80;36.70;;;;;;5044788;28;20086;-42
2022/04/14 12:27:39;;;;;;;2.40;1.10;;;23.80;36.60;;;;;;5035584;28;20037;-42
2022/04/14 12:30:11;;;;;;;2.00;0.95;;;23.80;36.60;;;;;;5024415;28;20064;-42
2022/04/14 12:32:37;;;;;;;2.50;1.10;;;23.90;36.60;;;;;;5025528;28;20450;-42
2022/04/14 12:35:08;;;;;;;3.42;1.20;;;23.90;36.60;;;;;;5035816;28;20446;-42
2022/04/14 12:37:35;;;;;;;2.28;1.02;;;23.90;36.50;;;;;;5044325;28;20120;-42
2022/04/14 12:40:09;;;;;;;2.42;1.15;;;24.00;36.50;;;;;;5045033;28;20047;-42
2022/04/14 12:42:35;;;;;;;2.08;1.02;;;24.00;36.40;;;;;;5044793;28;20104;-42
2022/04/14 12:45:12;;;;;;;2.75;1.20;;;24.00;36.40;;;;;;5044022;28;20222;-42
2022/04/14 12:47:47;;;;;;;2.03;1.00;;;24.00;36.30;;;;;;5044266;28;20032;-42
2022/04/14 12:50:19;;;;;;;2.80;1.10;;;24.00;36.90;;;;;;5043772;28;20550;-42